TOURFACTS.DK  
Stats and Facts from Tour de France.

Tour de France 2019 starts in 324 days
  Riders   Stages   Teams   Summits   Yearly  


 
Search by year

After 2018 - Stage 21:
 15000 starters.
  5165 different riders.
  638 teams.
  2253 stages.
  456 restdays.
  442940.60 km.
  5684 abandonnees.


Top 3
GC
Geraint Thomas83:17:13
Tom Dumoulin83:19:04
Christopher Froome83:19:37
Climb
Julian Alaphilippe170 pt.
Warren Barguil91 pt.
Rafal Majka76 pt.
Sprint
Peter Sagan477 pt.
Alexander Kristoff246 pt.
Arnaud Démare203 pt.
Youth
Pierre-Roger Latou..83:39:26
Egan Bernal83:45:05
Guillaume Martin84:01:31
Facts from Tour de France 1975
  |   Stages.  |   Stage winners.  |   Days in yellow  |   Average speed.  |   Route.  |   Teams.  |   All riders.  |   Rookies.  |  

  |   Withdrawls.  |   GC.  |   Polka  |   Green  |   White  |   Summits. (In tour)  |   Miscellaneous.  |  

Stage 9b on 05 - 07 - 1975
         Owning:    Eddy Merckx    
Pick a stage:  Pro 1a 1b 2 3 4 5 6 7 8 9a 9b 10 11 12 13 14 15 16 17 18 19 20 21 22
  FleuranceAuch | Dist: 37.40 km.

Average speed for all riders in stage:  41,042 km./hr.
    Place:Name:Team:Time:Km/h:
1
BELEddy MerckxITAMolteni00:49:42  +  00:00:00=45,151 
2
FRABernard ThevenetFRAPeugeot-BP-Michelin00:49:51  +  00:00:09=45,015 
3
NORKnut KnudsenITAJollyceramica00:50:05  +  00:00:23=44,805 
44 ITAFelice GimondiITABianchi-Campagnolo00:50:26  +  00:00:44=44,494 
55 FRAYves HézardFRAGan-Mercier-Hutchinson00:50:29  +  00:00:47=44,450 
66 ESPLuis OcañaESPSuper Ser00:50:48  +  00:01:06=44,173 
77 ITAFrancesco MoserITAFilotex00:50:50  +  00:01:08=44,144 
88 BELMichel PollentierBELCarpenter Confortluxe-Flandria00:50:58  +  00:01:16=44,029 
99 FRAJean-Pierre DanguillaumeFRAPeugeot-BP-Michelin00:51:02  +  00:01:20=43,971 
1010 NEDJoop ZoetemelkFRAGan-Mercier-Hutchinson00:51:22  +  00:01:40=43,686 
1111 FRARaymond PoulidorFRAGan-Mercier-Hutchinson00:51:48  +  00:02:06=43,320 
1212 BELHerman Van SpringelBELCarpenter Confortluxe-Flandria00:51:49  +  00:02:07=43,307 
1313 NEDHennie KuiperNLDFrisol-G.B.C.00:52:00  +  00:02:18=43,154 
1414 ITAGiovanni BattaglinITAJollyceramica00:52:02  +  00:02:20=43,126 
1515 SUIJosef FuchsITAFilotex00:52:03  +  00:02:21=43,112 
1616 PORJoaquim AgostinhoPRTSporting-Sottomayor00:52:04  +  00:02:22=43,099 
1717 ESPVicente LopezESPKas-Kaskol00:52:05  +  00:02:23=43,085 
1818 BELLucien Van ImpeFRAGitane-Campagnolo00:52:06  +  00:02:24=43,071 
1919 DENOle RitterITAFilotex00:52:17  +  00:02:35=42,920 
2020 NEDGerrie KnetemannFRAGan-Mercier-Hutchinson00:52:17  +  00:02:35=42,920 
2121 ESPJosé-Luis ViejoESPSuper Ser00:52:21  +  00:02:39=42,865 
2222 BELTony HoubrechtsITABianchi-Campagnolo00:52:37  +  00:02:55=42,648 
2323 ESPFrancisco GaldosESPKas-Kaskol00:52:39  +  00:02:57=42,621 
2424 FRAGeorges TalbourdetFRAGan-Mercier-Hutchinson00:52:46  +  00:03:04=42,527 
2525 BELEduard JanssensITAMolteni00:52:51  +  00:03:09=42,460 
2626 NEDFedor Iwan Den HertogNLDFrisol-G.B.C.00:52:57  +  00:03:15=42,380 
2727 ENGBarry HobanFRAGan-Mercier-Hutchinson00:53:01  +  00:03:19=42,326 
2828 FRARégis OvionFRAPeugeot-BP-Michelin00:53:05  +  00:03:23=42,273 
2929 FRARaymond DelisleFRAPeugeot-BP-Michelin00:53:08  +  00:03:26=42,233 
3030 FRAJoël MillardFRAJobo-Wolber00:53:09  +  00:03:27=42,220 
3131 FRAJean-Claude MisacFRAGan-Mercier-Hutchinson00:53:12  +  00:03:30=42,180 
3232 ESPGonzalo AjaESPKas-Kaskol00:53:13  +  00:03:31=42,167 
3333 FRAJean-Pierre GenetFRAGan-Mercier-Hutchinson00:53:13  +  00:03:31=42,167 
3434 COLMartìn RodríguezITABianchi-Campagnolo00:53:19  +  00:03:37=42,088 
3535 ESPMariano MartinezFRAGitane-Campagnolo00:53:25  +  00:03:43=42,009 
3636 ITAMauro SimonettiITAFilotex00:53:26  +  00:03:44=41,996 
3737 BELMarc DemeyerBELCarpenter Confortluxe-Flandria00:53:30  +  00:03:48=41,944 
3838 FRACharly RouxelFRAPeugeot-BP-Michelin00:53:33  +  00:03:51=41,905 
3939 BELMarc LievensITAMolteni00:53:35  +  00:03:53=41,879 
4040 PORFirmino BernardinoPRTSporting-Sottomayor00:53:36  +  00:03:54=41,866 
4141 BELRonald De WitteBELCarpenter Confortluxe-Flandria00:53:39  +  00:03:57=41,827 
4242 FRAPatrick BeonFRAPeugeot-BP-Michelin00:53:39  +  00:03:57=41,827 
4343 ESPJosé PesarrodonaESPKas-Kaskol00:53:41  +  00:03:59=41,801 
4444 FRAJosé CatieauFRAPeugeot-BP-Michelin00:53:51  +  00:04:09=41,671 
4545 BELWilly TeirlinckFRAGitane-Campagnolo00:53:51  +  00:04:09=41,671 
4646 ESPPedro TorresESPSuper Ser00:53:53  +  00:04:11=41,646 
4747 ITARoberto PoggialiITAFilotex00:53:53  +  00:04:11=41,646 
4848 NEDGerben KarstensFRAGitane-Campagnolo00:53:57  +  00:04:15=41,594 
4949 FRAHubert MathisBELMiko-De Gribaldy00:53:58  +  00:04:16=41,581 
5050 ITAGiovanni CavalcantiITABianchi-Campagnolo00:54:02  +  00:04:20=41,530 
5151 BELJoseph SpruytITAMolteni00:54:03  +  00:04:21=41,517 
5252 FRAFrancis CampanerPRTSporting-Sottomayor00:54:09  +  00:04:27=41,440 
5353 ESPCarlos MeleroESPKas-Kaskol00:54:25  +  00:04:43=41,237 
5454 FRAFerdinand JulienPRTSporting-Sottomayor00:54:33  +  00:04:51=41,137 
5555 FRAGuy SibilleFRAPeugeot-BP-Michelin00:54:35  +  00:04:53=41,111 
5656 BELLudo DelcroixITAMolteni00:54:37  +  00:04:55=41,086 
5757 FRASylvain VasseurESPSuper Ser00:54:38  +  00:04:56=41,074 
5858 FRAPatrick PerretBELMiko-De Gribaldy00:54:38  +  00:04:56=41,074 
5959 ESPAntonio MenendezESPKas-Kaskol00:54:40  +  00:04:58=41,049 
6060 FRAAlain SantyFRAGitane-Campagnolo00:54:40  +  00:04:58=41,049 
6161 NEDHenk PrinsenNLDFrisol-G.B.C.00:54:41  +  00:04:59=41,036 
6262 ITAGiacinto SantambrogioITABianchi-Campagnolo00:54:50  +  00:05:08=40,924 
6363 FRABernard LabourdettePRTSporting-Sottomayor00:54:51  +  00:05:09=40,912 
6464 BELRik Van LindenITABianchi-Campagnolo00:54:52  +  00:05:10=40,899 
6565 BELKarel RottiersITAMolteni00:54:56  +  00:05:14=40,850 
6666 ITASimone FraccaroITABianchi-Campagnolo00:55:05  +  00:05:23=40,738 
6767 FRARoger LegeayFRAJobo-Wolber00:55:07  +  00:05:25=40,714 
6868 PORJosé AmaroPRTSporting-Sottomayor00:55:09  +  00:05:27=40,689 
6969 ITAFabrizio FabbriITABianchi-Campagnolo00:55:10  +  00:05:28=40,677 
7070 NEDGerard KamperNLDFrisol-G.B.C.00:55:11  +  00:05:29=40,664 
7171 ESPSantiago LazcanoESPSuper Ser00:55:14  +  00:05:32=40,628 
7272 ITAGiacomo BazzanITAJollyceramica00:55:16  +  00:05:34=40,603 
7373 FRAMichel PerinFRAGan-Mercier-Hutchinson00:55:23  +  00:05:41=40,518 
7474 FRARegis DelepineBELCarpenter Confortluxe-Flandria00:55:23  +  00:05:41=40,518 
7575 FRARaymond MartinFRAGitane-Campagnolo00:55:24  +  00:05:42=40,505 
7676 ITARoberto SorliniITAFilotex00:55:24  +  00:05:42=40,505 
7777 BELAlbert Van VlierbergheBELMiko-De Gribaldy00:55:26  +  00:05:44=40,481 
7878 PORFernando FerreiraPRTSporting-Sottomayor00:55:27  +  00:05:45=40,469 
7979 COLAntonio MartosESPKas-Kaskol00:55:27  +  00:05:45=40,469 
8080 ITAAlessio AntoniniITAJollyceramica00:55:28  +  00:05:46=40,457 
8181 BELWilfried DavidBELCarpenter Confortluxe-Flandria00:55:30  +  00:05:48=40,432 
8282 BELWalter GodefrootBELCarpenter Confortluxe-Flandria00:55:35  +  00:05:53=40,372 
8383 ESPJosé GrandeESPKas-Kaskol00:55:36  +  00:05:54=40,360 
8484 ITADonato GiulianiITAJollyceramica00:55:39  +  00:05:57=40,323 
8585 BELJos De SchoenmaeckerITAMolteni00:55:43  +  00:06:01=40,275 
8686 NEDGerard VianenFRAGan-Mercier-Hutchinson00:55:49  +  00:06:07=40,203 
8787 BELRoger RosiersESPSuper Ser00:55:52  +  00:06:10=40,167 
8888 FRAAndré MolletPRTSporting-Sottomayor00:55:53  +  00:06:11=40,155 
8989 BELFrans MintjensITAMolteni00:55:56  +  00:06:14=40,119 
9090 ESPAndré RomeroFRAJobo-Wolber00:55:56  +  00:06:14=40,119 
9191 ITAArnaldo CaverzasiITAFilotex00:55:56  +  00:06:14=40,119 
9292 FRABernard BourreauFRAPeugeot-BP-Michelin00:55:58  +  00:06:16=40,095 
9393 BELAndre DoyenBELMiko-De Gribaldy00:55:58  +  00:06:16=40,095 
9494 FRASerge ParsaniITABianchi-Campagnolo00:56:02  +  00:06:20=40,048 
9595 ESPJosé CasasESPSuper Ser00:56:02  +  00:06:20=40,048 
9696 ITARenato MarchettiITAFilotex00:56:03  +  00:06:21=40,036 
9797 ITALuigi CastellettiITABianchi-Campagnolo00:56:09  +  00:06:27=39,964 
9898 ESPLuis BalagueESPSuper Ser00:56:11  +  00:06:29=39,941 
9999 FRAAndré CorbeauFRAJobo-Wolber00:56:12  +  00:06:30=39,929 
100100 FRAGuy LeleuFRAGitane-Campagnolo00:56:16  +  00:06:34=39,882 
101101 FRARobert MintkiewiczFRAGitane-Campagnolo00:56:17  +  00:06:35=39,870 
102102 BELJoseph HuysmansITAMolteni00:56:19  +  00:06:37=39,846 
103103 ITAPierino GavazziITAJollyceramica00:56:20  +  00:06:38=39,834 
104104 NEDCees PriemNLDFrisol-G.B.C.00:56:21  +  00:06:39=39,823 
105105 FRAJoel HauvieuxFRAJobo-Wolber00:56:22  +  00:06:40=39,811 
106106 MARAntoine GutierrezBELMiko-De Gribaldy00:56:22  +  00:06:40=39,811 
107107 NEDBen KokenNLDFrisol-G.B.C.00:56:24  +  00:06:42=39,787 
108108 FRARichard PianaroFRAJobo-Wolber00:56:24  +  00:06:42=39,787 
109109 ESPJuan ZuranoESPKas-Kaskol00:56:24  +  00:06:42=39,787 
110110 BELJosé De CauwerNLDFrisol-G.B.C.00:56:27  +  00:06:45=39,752 
111111 FRAGerard MoneyronBELCarpenter Confortluxe-Flandria00:56:27  +  00:06:45=39,752 
112112 ITASigfrido FontanelliITAFilotex00:56:29  +  00:06:47=39,729 
113113 BELHerman BeysensITAMolteni00:56:40  +  00:06:58=39,600 
114114 ESPJulian AndianoESPSuper Ser00:56:48  +  00:07:06=39,507 
115115 FRAJacques BoulasFRAJobo-Wolber00:56:54  +  00:07:12=39,438 
116116 BELRené DillenFRAGitane-Campagnolo00:56:59  +  00:07:17=39,380 
117117 FRAClaude MagniFRAJobo-Wolber00:57:06  +  00:07:24=39,299 
118118 BELFrans Van VlierbergheBELMiko-De Gribaldy00:57:11  +  00:07:29=39,242 
119119 FRAMaurice Le GuillouxFRAGitane-Campagnolo00:57:14  +  00:07:32=39,208 
120120 BELLucien De BrauwereBELMiko-De Gribaldy00:57:26  +  00:07:44=39,071 
121121 BELDaniel VerplanckeBELCarpenter Confortluxe-Flandria00:57:47  +  00:08:05=38,835 
122122 AUSDonald AllanNLDFrisol-G.B.C.00:57:58  +  00:08:16=38,712 
123123 BELRoger LoyschBELMiko-De Gribaldy00:57:59  +  00:08:17=38,701 
124124 NEDTheo SmitNLDFrisol-G.B.C.00:58:12  +  00:08:30=38,557 
125125 FRAAlain CiganaFRAJobo-Wolber00:58:22  +  00:08:40=38,447 
126126 ITASandro QuintarelliITAJollyceramica00:58:28  +  00:08:46=38,381 
127127 ITAPietro DallaiITAFilotex00:58:34  +  00:08:52=38,315 
128128 BELEddy PeelmanESPSuper Ser00:59:08  +  00:09:26=37,948 
129129 ITAGiovanni Dalla BonaITAJollyceramica00:59:46  +  00:10:04=37,546 

Todays birthdays.

1883  Albert Niepçeron
1911  Camille Leroy
1914  Gaston Grimbert
1940  José Momeñe
1956  Régis Clère
1957  Alfonso Dal Pian
1960  Samuel Cabrera
1967  Christophe Capelle
1976  Dimitiri Fofonov
1980  Giampaolo Caruso
1983  Jean-Marc Marino




Visits: